createdAt,value
2023-12-28T00:02:03.901Z,15.60
2023-12-28T00:05:06.174Z,13.82
2023-12-28T00:08:08.272Z,18.15
2023-12-28T00:11:10.600Z,18.25
2023-12-28T00:14:12.796Z,20.30
2023-12-28T00:17:15.328Z,21.92
2023-12-28T00:20:17.515Z,19.98
2023-12-28T00:23:21.211Z,12.87
2023-12-28T00:26:23.459Z,13.25
2023-12-28T00:29:39.697Z,12.88
2023-12-28T00:32:44.649Z,14.52
2023-12-28T00:35:46.951Z,13.90
2023-12-28T00:38:49.053Z,11.45
2023-12-28T00:41:51.346Z,11.57
2023-12-28T00:44:54.184Z,12.17
2023-12-28T00:47:58.507Z,11.93
2023-12-28T00:51:01.383Z,9.80
2023-12-28T00:54:03.520Z,8.60
2023-12-28T00:57:05.986Z,9.20
2023-12-28T01:00:08.471Z,7.85
2023-12-28T01:03:11.507Z,9.70
2023-12-28T01:06:14.000Z,8.80
2023-12-28T01:09:16.213Z,8.57
2023-12-28T01:12:19.001Z,8.82
2023-12-28T01:15:21.845Z,15.70
2023-12-28T01:18:24.547Z,10.27
2023-12-28T01:21:27.827Z,8.70
2023-12-28T01:24:30.148Z,9.20
2023-12-28T01:27:33.060Z,14.38
2023-12-28T01:30:35.689Z,11.35
2023-12-28T01:33:39.392Z,7.20
2023-12-28T01:36:45.401Z,11.95
2023-12-28T01:39:47.743Z,13.00
2023-12-28T01:42:50.061Z,13.02
2023-12-28T01:45:52.394Z,7.33
2023-12-28T01:48:54.957Z,7.88
2023-12-28T01:51:57.995Z,8.85
2023-12-28T01:55:00.353Z,9.10
2023-12-28T01:58:02.792Z,10.63
2023-12-28T02:01:05.414Z,6.90
2023-12-28T02:04:08.478Z,6.20
2023-12-28T02:07:11.915Z,6.22
2023-12-28T02:10:14.143Z,7.63
2023-12-28T02:13:16.277Z,4.65
2023-12-28T02:16:27.841Z,7.93
2023-12-28T02:19:41.218Z,7.95
2023-12-28T02:22:44.119Z,7.82
2023-12-28T02:25:46.234Z,7.17
2023-12-28T02:28:48.771Z,6.68
2023-12-28T02:31:54.876Z,3.33
2023-12-28T02:34:59.624Z,8.85
2023-12-28T02:38:11.484Z,9.05
2023-12-28T02:41:13.686Z,7.57
2023-12-28T02:44:15.854Z,13.95
2023-12-28T02:47:17.999Z,10.03
2023-12-28T02:50:20.119Z,8.07
2023-12-28T02:53:22.220Z,8.73
2023-12-28T02:56:24.365Z,7.10
2023-12-28T02:59:26.540Z,7.03
2023-12-28T03:02:28.804Z,5.72
2023-12-28T03:05:31.093Z,7.47
2023-12-28T03:08:33.331Z,7.45
2023-12-28T03:11:35.554Z,11.27
2023-12-28T03:14:37.698Z,7.75
2023-12-28T03:17:40.709Z,8.00
2023-12-28T03:20:42.860Z,7.30
2023-12-28T03:23:45.103Z,8.18
2023-12-28T03:26:47.224Z,14.87
2023-12-28T03:29:49.357Z,7.97
2023-12-28T03:32:51.841Z,8.60
2023-12-28T03:35:53.997Z,7.22
2023-12-28T03:38:56.055Z,7.03
2023-12-28T03:41:58.163Z,7.75
2023-12-28T03:45:00.414Z,5.05
2023-12-28T03:48:03.072Z,7.23
2023-12-28T03:51:05.807Z,10.77
2023-12-28T03:54:07.990Z,7.75
2023-12-28T03:57:10.230Z,5.40
2023-12-28T04:00:12.578Z,11.18
2023-12-28T04:03:17.713Z,7.47
2023-12-28T04:06:20.074Z,7.40
2023-12-28T04:09:22.287Z,11.85
2023-12-28T04:12:24.471Z,6.57
2023-12-28T04:15:29.683Z,9.07
2023-12-28T04:18:33.186Z,7.37
2023-12-28T04:21:35.406Z,7.63
2023-12-28T04:24:39.332Z,10.95
2023-12-28T04:27:42.419Z,9.03
2023-12-28T04:30:44.787Z,7.90
2023-12-28T04:33:47.350Z,11.68
2023-12-28T04:36:50.174Z,9.27
2023-12-28T04:39:52.435Z,10.40
2023-12-28T04:42:54.712Z,6.97
2023-12-28T04:45:57.025Z,7.03
2023-12-28T04:48:59.280Z,11.27
2023-12-28T04:52:01.639Z,12.27
2023-12-28T04:55:04.231Z,11.45
2023-12-28T04:58:06.473Z,4.97
2023-12-28T05:01:08.753Z,10.10
2023-12-28T05:04:14.477Z,9.85
2023-12-28T05:07:19.019Z,7.28
2023-12-28T05:10:21.381Z,19.00
2023-12-28T05:13:23.540Z,13.07
2023-12-28T05:16:25.738Z,11.27
2023-12-28T05:19:27.876Z,12.07
2023-12-28T05:22:30.025Z,7.38
2023-12-28T05:25:32.210Z,12.68
2023-12-28T05:28:34.381Z,9.57
2023-12-28T05:31:36.799Z,11.30
2023-12-28T05:34:39.064Z,17.85
2023-12-28T05:37:41.573Z,11.63
2023-12-28T05:40:45.652Z,10.27
2023-12-28T05:43:47.760Z,9.98
2023-12-28T05:46:49.885Z,9.10
2023-12-28T05:49:52.976Z,13.00
2023-12-28T05:52:56.195Z,8.80
2023-12-28T05:55:58.356Z,12.18
2023-12-28T05:59:00.543Z,11.90
2023-12-28T06:02:02.731Z,9.30
2023-12-28T06:05:05.470Z,6.03
2023-12-28T06:08:07.776Z,10.88
2023-12-28T06:11:10.143Z,7.07
2023-12-28T06:14:12.504Z,10.48
2023-12-28T06:17:16.555Z,12.00
2023-12-28T06:20:18.663Z,8.00
2023-12-28T06:23:20.765Z,10.93
2023-12-28T06:26:22.928Z,8.18
2023-12-28T06:29:25.103Z,8.97
2023-12-28T06:32:28.743Z,9.27
2023-12-28T06:35:30.992Z,4.50
2023-12-28T06:38:34.259Z,9.88
2023-12-28T06:41:36.369Z,4.43
2023-12-28T06:44:38.489Z,11.68
2023-12-28T06:47:40.689Z,9.20
2023-12-28T06:50:42.795Z,6.03
2023-12-28T06:53:45.784Z,12.63
2023-12-28T06:56:47.951Z,9.45
2023-12-28T06:59:50.146Z,6.70
2023-12-28T07:02:52.504Z,8.30
2023-12-28T07:05:54.728Z,8.80
2023-12-28T07:08:56.821Z,14.30
2023-12-28T07:11:59.008Z,9.32
2023-12-28T07:15:01.099Z,9.82
2023-12-28T07:18:03.543Z,10.25
2023-12-28T07:21:07.221Z,15.50
2023-12-28T07:24:09.356Z,9.13
2023-12-28T07:27:11.400Z,16.55
2023-12-28T07:30:13.875Z,14.80
2023-12-28T07:33:16.121Z,8.70
2023-12-28T07:36:18.547Z,8.20
2023-12-28T07:39:20.690Z,6.80
2023-12-28T07:42:22.923Z,11.38
2023-12-28T07:45:25.892Z,8.57
2023-12-28T07:48:28.551Z,9.85
2023-12-28T07:51:30.830Z,15.20
2023-12-28T07:54:33.080Z,11.20
2023-12-28T07:57:35.852Z,11.10
2023-12-28T08:00:38.015Z,8.93
2023-12-28T08:03:40.263Z,14.45
2023-12-28T08:06:42.512Z,9.73
2023-12-28T08:09:45.792Z,7.18
2023-12-28T08:12:48.060Z,13.02
2023-12-28T08:15:50.304Z,6.68
2023-12-28T08:18:52.630Z,10.85
2023-12-28T08:21:54.900Z,12.50
2023-12-28T08:24:58.801Z,18.13
2023-12-28T08:28:01.246Z,20.38
2023-12-28T08:31:03.864Z,14.00
2023-12-28T08:34:06.180Z,15.52
2023-12-28T08:37:08.352Z,10.73
2023-12-28T08:40:10.805Z,10.90
2023-12-28T08:43:13.330Z,6.78
2023-12-28T08:46:18.858Z,8.80
2023-12-28T08:49:21.225Z,6.25
2023-12-28T08:52:23.734Z,12.90
2023-12-28T08:55:25.978Z,9.30
2023-12-28T08:58:28.141Z,7.03
2023-12-28T09:01:33.218Z,9.30
2023-12-28T09:04:35.550Z,7.57
2023-12-28T09:07:43.686Z,9.80
2023-12-28T09:10:45.757Z,12.13
2023-12-28T09:13:47.850Z,5.20
2023-12-28T09:16:50.003Z,8.13
2023-12-28T09:19:52.322Z,7.28
2023-12-28T09:22:57.219Z,10.33
2023-12-28T09:25:59.955Z,9.18
2023-12-28T09:29:02.176Z,6.70
2023-12-28T09:32:04.337Z,10.60
2023-12-28T09:35:06.653Z,13.40
2023-12-28T09:38:09.405Z,51.08
2023-12-28T09:41:18.726Z,7.50
2023-12-28T09:44:21.438Z,21.80
2023-12-28T09:47:23.571Z,9.00
2023-12-28T09:50:27.733Z,31.80
2023-12-28T09:53:30.535Z,4.70
2023-12-28T09:56:36.181Z,7.68
2023-12-28T09:59:39.117Z,4.63
2023-12-28T10:02:41.721Z,7.47
2023-12-28T10:05:44.853Z,8.52
2023-12-28T10:08:49.063Z,7.80
2023-12-28T10:11:51.433Z,6.20
2023-12-28T10:14:53.501Z,8.60
2023-12-28T10:17:55.736Z,6.50
2023-12-28T10:20:58.010Z,7.72
2023-12-28T10:24:00.094Z,6.30
2023-12-28T10:27:02.635Z,6.43
2023-12-28T10:30:05.099Z,3.00
2023-12-28T10:33:07.857Z,9.20
2023-12-28T10:36:11.303Z,6.30
2023-12-28T10:39:17.573Z,8.85
2023-12-28T10:42:28.823Z,3.33
2023-12-28T10:45:32.808Z,8.40
2023-12-28T10:48:38.056Z,6.70
2023-12-28T10:51:42.347Z,8.52
2023-12-28T10:55:04.461Z,5.37
2023-12-28T10:58:11.802Z,6.40
2023-12-28T11:01:16.197Z,5.85
2023-12-28T11:04:24.365Z,4.73
2023-12-28T11:07:33.484Z,6.03
2023-12-28T11:10:36.190Z,6.72
2023-12-28T11:13:38.677Z,6.07
2023-12-28T11:16:41.360Z,2.28
2023-12-28T11:19:44.176Z,8.60
2023-12-28T11:22:46.488Z,5.45
2023-12-28T11:25:48.698Z,5.27
2023-12-28T11:28:51.039Z,9.25
2023-12-28T11:31:58.894Z,5.47
2023-12-28T11:35:01.231Z,9.80
2023-12-28T11:38:07.501Z,9.10
2023-12-28T11:41:09.622Z,6.40
2023-12-28T11:44:12.142Z,6.10
2023-12-28T11:47:14.486Z,10.82
2023-12-28T11:50:16.770Z,5.30
2023-12-28T11:53:19.282Z,5.97
2023-12-28T11:56:21.437Z,9.67
2023-12-28T11:59:23.545Z,9.18
2023-12-28T12:02:25.866Z,9.63
2023-12-28T12:05:28.553Z,9.00
2023-12-28T12:08:31.112Z,10.38
2023-12-28T12:11:33.276Z,7.78
2023-12-28T12:14:35.686Z,5.55
2023-12-28T12:17:37.877Z,6.20
2023-12-28T12:20:40.799Z,7.28
2023-12-28T12:23:43.758Z,5.03
2023-12-28T12:26:46.856Z,4.43
2023-12-28T12:29:49.136Z,7.32
2023-12-28T12:32:51.539Z,10.68
2023-12-28T12:35:53.981Z,6.73
2023-12-28T12:38:57.093Z,10.27
2023-12-28T12:41:59.269Z,9.00
2023-12-28T12:45:02.051Z,6.65
2023-12-28T12:48:05.501Z,6.28
2023-12-28T12:51:07.990Z,5.40
2023-12-28T12:54:10.542Z,7.80
2023-12-28T12:57:12.660Z,7.37
2023-12-28T13:00:14.915Z,7.88
2023-12-28T13:03:18.424Z,9.80
2023-12-28T13:06:24.047Z,5.37
2023-12-28T13:09:26.449Z,7.82
2023-12-28T13:12:28.767Z,6.30
2023-12-28T13:15:30.927Z,9.20
2023-12-28T13:18:36.367Z,4.20
2023-12-28T13:21:38.769Z,11.98
2023-12-28T13:24:41.011Z,8.32
2023-12-28T13:27:43.361Z,8.20
2023-12-28T13:30:45.630Z,6.78
2023-12-28T13:33:48.545Z,5.05
2023-12-28T13:36:50.932Z,4.87
2023-12-28T13:39:53.172Z,8.20
2023-12-28T13:42:55.486Z,6.00
2023-12-28T13:45:57.798Z,9.15
2023-12-28T13:49:00.102Z,8.05
2023-12-28T13:52:02.563Z,8.40
2023-12-28T13:55:05.056Z,5.55
2023-12-28T13:58:07.354Z,8.37
2023-12-28T14:01:10.526Z,8.65
2023-12-28T14:04:12.872Z,9.25
2023-12-28T14:07:15.120Z,8.33
2023-12-28T14:10:17.355Z,11.82
2023-12-28T14:13:20.927Z,7.97
2023-12-28T14:16:23.110Z,6.53
2023-12-28T14:19:25.612Z,7.68
2023-12-28T14:22:27.944Z,10.15
2023-12-28T14:25:31.688Z,8.95
2023-12-28T14:28:35.060Z,8.07
2023-12-28T14:31:37.495Z,10.50
2023-12-28T14:34:39.847Z,9.43
2023-12-28T14:37:41.943Z,7.27
2023-12-28T14:40:44.126Z,12.23
2023-12-28T14:43:46.348Z,12.73
2023-12-28T14:46:48.576Z,10.95
2023-12-28T14:49:51.589Z,9.75
2023-12-28T14:52:53.928Z,8.82
2023-12-28T14:55:55.985Z,16.20
2023-12-28T14:58:58.318Z,10.47
2023-12-28T15:02:00.610Z,12.32
2023-12-28T15:05:02.943Z,35.03
2023-12-28T15:08:05.553Z,10.90
2023-12-28T15:11:11.164Z,15.60
2023-12-28T15:14:13.456Z,15.20
2023-12-28T15:17:15.893Z,19.08
2023-12-28T15:20:18.313Z,15.95
2023-12-28T15:23:21.652Z,20.88
2023-12-28T15:26:23.999Z,14.32
2023-12-28T15:29:26.787Z,17.53
2023-12-28T15:32:29.004Z,24.45
2023-12-28T15:35:31.211Z,36.70
2023-12-28T15:38:33.455Z,37.87
2023-12-28T15:41:35.584Z,48.88
2023-12-28T15:44:37.758Z,44.92
2023-12-28T15:47:39.977Z,58.13
2023-12-28T15:50:42.215Z,56.15
2023-12-28T15:53:44.355Z,44.03
2023-12-28T15:56:46.462Z,44.25
2023-12-28T15:59:48.554Z,42.80
2023-12-28T16:02:51.112Z,35.15
2023-12-28T16:05:53.335Z,43.35
2023-12-28T16:08:55.522Z,37.23
2023-12-28T16:11:57.774Z,31.63
2023-12-28T16:15:00.002Z,38.10
2023-12-28T16:18:02.505Z,33.15
2023-12-28T16:21:05.000Z,30.98
2023-12-28T16:24:07.250Z,42.83
2023-12-28T16:27:09.582Z,52.88
2023-12-28T16:30:12.002Z,47.83
2023-12-28T16:33:14.925Z,57.25
2023-12-28T16:36:17.149Z,72.88
2023-12-28T16:39:19.383Z,51.83
2023-12-28T16:42:21.673Z,56.42
2023-12-28T16:45:24.324Z,51.13
2023-12-28T16:48:26.660Z,29.77
2023-12-28T16:51:28.886Z,35.15
2023-12-28T16:54:31.085Z,25.65
2023-12-28T16:57:33.282Z,22.38
2023-12-28T17:00:37.675Z,20.23
2023-12-28T17:03:40.153Z,16.50
2023-12-28T17:06:42.612Z,33.22
2023-12-28T17:09:45.538Z,29.60
2023-12-28T17:12:49.293Z,20.30
2023-12-28T17:15:53.332Z,18.58
2023-12-28T17:18:55.970Z,23.50
2023-12-28T17:21:59.244Z,17.40
2023-12-28T17:25:08.940Z,14.88
2023-12-28T17:28:16.658Z,11.63
2023-12-28T17:31:19.736Z,15.93
2023-12-28T17:34:22.063Z,17.30
2023-12-28T17:37:24.438Z,19.38
2023-12-28T17:40:26.823Z,12.60
2023-12-28T17:43:38.596Z,15.75
2023-12-28T17:46:48.385Z,22.67
2023-12-28T17:49:50.750Z,19.80
2023-12-28T17:52:53.131Z,25.75
2023-12-28T17:55:56.009Z,14.80
2023-12-28T17:58:58.151Z,10.80
2023-12-28T18:02:01.022Z,17.73
2023-12-28T18:05:03.511Z,15.45
2023-12-28T18:08:06.222Z,19.23
2023-12-28T18:11:09.000Z,23.43
2023-12-28T18:14:11.148Z,22.67
2023-12-28T18:17:13.428Z,20.70
2023-12-28T18:20:15.802Z,17.90
2023-12-28T18:23:18.381Z,23.60
2023-12-28T18:26:20.555Z,18.45
2023-12-28T18:29:22.747Z,24.00
2023-12-28T18:32:25.072Z,43.07
2023-12-28T18:35:27.280Z,42.30
2023-12-28T18:38:29.401Z,50.90
2023-12-28T18:41:31.575Z,53.73
2023-12-28T18:44:35.468Z,57.05
2023-12-28T18:47:37.723Z,49.95
2023-12-28T18:50:43.043Z,42.65
2023-12-28T18:53:47.767Z,40.63
2023-12-28T18:56:50.120Z,34.47
2023-12-28T18:59:52.418Z,34.60
2023-12-28T19:02:54.717Z,32.03
2023-12-28T19:05:56.862Z,35.67
2023-12-28T19:09:00.650Z,44.38
2023-12-28T19:12:03.769Z,39.87
2023-12-28T19:15:06.123Z,39.13
2023-12-28T19:18:08.318Z,39.88
2023-12-28T19:21:11.026Z,28.27
2023-12-28T19:24:13.441Z,33.13
2023-12-28T19:27:17.066Z,35.95
2023-12-28T19:30:19.326Z,37.38
2023-12-28T19:33:21.694Z,29.17
2023-12-28T19:36:23.936Z,27.88
2023-12-28T19:39:26.284Z,25.63
2023-12-28T19:42:28.733Z,25.13
2023-12-28T19:45:31.618Z,18.35
2023-12-28T19:48:34.039Z,37.67
2023-12-28T19:51:36.534Z,56.80
2023-12-28T19:54:38.877Z,42.22
2023-12-28T19:57:42.738Z,63.30
2023-12-28T20:00:45.509Z,110.72
2023-12-28T20:03:47.917Z,63.97
2023-12-28T20:06:50.866Z,55.45
2023-12-28T20:09:53.134Z,32.33
2023-12-28T20:12:55.356Z,36.57
2023-12-28T20:15:57.621Z,42.75
2023-12-28T20:19:03.019Z,37.28
2023-12-28T20:22:05.311Z,34.50
2023-12-28T20:25:07.716Z,37.70
2023-12-28T20:28:10.037Z,46.67
2023-12-28T20:31:12.267Z,49.92
2023-12-28T20:34:14.592Z,35.60
2023-12-28T20:37:16.824Z,34.88
2023-12-28T20:40:18.949Z,39.70
2023-12-28T20:43:21.193Z,51.60
2023-12-28T20:46:23.587Z,62.28
2023-12-28T20:49:34.653Z,69.38
2023-12-28T20:52:45.122Z,61.85
2023-12-28T20:55:47.344Z,43.03
2023-12-28T20:58:49.717Z,49.10
2023-12-28T21:01:51.909Z,61.85
2023-12-28T21:04:54.391Z,64.00
2023-12-28T21:07:56.687Z,65.75
2023-12-28T21:10:59.243Z,42.85
2023-12-28T21:14:05.823Z,63.67
2023-12-28T21:17:08.171Z,69.07
2023-12-28T21:20:11.072Z,47.25
2023-12-28T21:23:13.357Z,49.08
2023-12-28T21:26:15.636Z,55.55
2023-12-28T21:29:18.307Z,59.05
2023-12-28T21:32:20.588Z,47.47
2023-12-28T21:35:23.017Z,58.47
2023-12-28T21:38:25.166Z,35.55
2023-12-28T21:41:27.285Z,33.55
2023-12-28T21:44:30.231Z,33.70
2023-12-28T21:47:32.418Z,40.70
2023-12-28T21:50:34.525Z,40.10
2023-12-28T21:53:36.646Z,29.20
2023-12-28T21:56:39.986Z,27.60
2023-12-28T21:59:42.552Z,44.88
2023-12-28T22:02:44.633Z,44.17
2023-12-28T22:05:46.820Z,52.13
2023-12-28T22:08:48.995Z,47.17
2023-12-28T22:11:51.980Z,33.72
2023-12-28T22:14:54.064Z,42.57
2023-12-28T22:17:56.206Z,44.40
2023-12-28T22:20:58.400Z,44.05
2023-12-28T22:24:00.518Z,52.92
2023-12-28T22:27:02.690Z,55.50
2023-12-28T22:30:05.108Z,38.42
2023-12-28T22:33:07.726Z,41.03
2023-12-28T22:36:10.017Z,49.10
2023-12-28T22:39:12.300Z,57.25
2023-12-28T22:42:14.456Z,39.10
2023-12-28T22:45:16.561Z,40.80
2023-12-28T22:48:19.717Z,43.10
2023-12-28T22:51:21.933Z,45.03
2023-12-28T22:54:24.424Z,48.03
2023-12-28T22:57:26.661Z,42.45
2023-12-28T23:00:36.089Z,56.85
2023-12-28T23:03:38.444Z,43.25
2023-12-28T23:06:40.678Z,44.40
2023-12-28T23:09:42.872Z,48.42
2023-12-28T23:12:45.101Z,47.15
2023-12-28T23:15:47.268Z,52.50
2023-12-28T23:18:49.575Z,52.53
2023-12-28T23:21:51.846Z,53.95
2023-12-28T23:24:54.104Z,55.97
2023-12-28T23:27:56.339Z,49.67
2023-12-28T23:30:58.525Z,64.60
2023-12-28T23:34:01.020Z,50.40
2023-12-28T23:37:03.459Z,55.13
2023-12-28T23:40:06.808Z,60.40
2023-12-28T23:43:09.264Z,54.90
2023-12-28T23:46:11.985Z,54.47
2023-12-28T23:49:14.314Z,48.25
2023-12-28T23:52:16.568Z,54.88
2023-12-28T23:55:18.733Z,47.90
2023-12-28T23:58:20.922Z,39.92
